createdAt,value
2022-12-11T00:00:41.111Z,44.00
2022-12-11T00:04:04.109Z,42.50
2022-12-11T00:07:07.105Z,43.40
2022-12-11T00:10:10.111Z,41.60
2022-12-11T00:13:13.130Z,42.50
2022-12-11T00:16:16.484Z,41.40
2022-12-11T00:19:19.618Z,41.40
2022-12-11T00:22:22.703Z,38.20
2022-12-11T00:25:25.683Z,46.60
2022-12-11T00:28:28.701Z,37.20
2022-12-11T00:31:31.944Z,38.60
2022-12-11T00:34:34.999Z,35.80
2022-12-11T00:37:38.693Z,37.80
2022-12-11T00:40:41.966Z,40.10
2022-12-11T00:43:45.185Z,43.30
2022-12-11T00:46:48.339Z,47.90
2022-12-11T00:49:51.423Z,44.70
2022-12-11T00:52:54.506Z,44.10
2022-12-11T00:55:57.566Z,42.90
2022-12-11T00:59:01.028Z,42.50
2022-12-11T01:02:04.282Z,45.10
2022-12-11T01:05:07.886Z,43.90
2022-12-11T01:08:11.141Z,47.90
2022-12-11T01:11:16.332Z,41.40
2022-12-11T01:14:19.745Z,41.00
2022-12-11T01:17:22.815Z,36.60
2022-12-11T01:20:28.296Z,38.70
2022-12-11T01:23:31.274Z,32.90
2022-12-11T01:26:34.527Z,39.40
2022-12-11T01:29:37.691Z,36.30
2022-12-11T01:32:40.649Z,36.80
2022-12-11T01:35:43.642Z,33.20
2022-12-11T01:38:48.301Z,30.20
2022-12-11T01:41:51.325Z,30.90
2022-12-11T01:45:15.816Z,32.00
2022-12-11T01:48:25.292Z,33.00
2022-12-11T01:51:31.425Z,32.00
2022-12-11T01:54:34.859Z,32.80
2022-12-11T01:57:41.354Z,32.30
2022-12-11T02:00:44.465Z,35.00
2022-12-11T02:03:47.639Z,31.90
2022-12-11T02:06:56.196Z,35.90
2022-12-11T02:09:59.188Z,33.00
2022-12-11T02:13:13.038Z,38.20
2022-12-11T02:16:25.796Z,35.50
2022-12-11T02:19:55.911Z,35.40
2022-12-11T02:23:16.940Z,34.70
2022-12-11T02:26:49.912Z,35.10
2022-12-11T02:30:07.183Z,32.60
2022-12-11T02:33:13.719Z,32.20
2022-12-11T02:36:19.028Z,35.90
2022-12-11T02:39:24.554Z,36.20
2022-12-11T02:42:31.416Z,43.40
2022-12-11T02:45:35.516Z,35.30
2022-12-11T02:48:41.640Z,37.20
2022-12-11T02:51:44.711Z,33.60
2022-12-11T02:54:49.715Z,36.00
2022-12-11T02:58:25.232Z,35.40
2022-12-11T03:01:28.566Z,35.70
2022-12-11T03:04:32.330Z,38.10
2022-12-11T03:07:38.677Z,37.50
2022-12-11T03:10:41.689Z,30.90
2022-12-11T03:13:44.731Z,34.50
2022-12-11T03:17:00.095Z,36.80
2022-12-11T03:20:15.324Z,41.80
2022-12-11T03:23:32.308Z,36.00
2022-12-11T03:26:48.773Z,40.70
2022-12-11T03:30:14.544Z,42.60
2022-12-11T03:33:26.541Z,42.50
2022-12-11T03:36:36.271Z,40.10
2022-12-11T03:39:44.337Z,39.60
2022-12-11T03:42:50.601Z,34.80
2022-12-11T03:45:54.824Z,33.50
2022-12-11T03:49:03.438Z,31.80
2022-12-11T03:52:09.124Z,30.70
2022-12-11T03:55:15.228Z,33.20
2022-12-11T03:58:18.246Z,32.00
2022-12-11T04:01:21.518Z,32.10
2022-12-11T04:04:24.764Z,31.00
2022-12-11T04:07:28.710Z,34.60
2022-12-11T04:10:31.792Z,38.90
2022-12-11T04:13:34.943Z,42.60
2022-12-11T04:16:38.133Z,40.50
2022-12-11T04:19:59.571Z,42.70
2022-12-11T04:23:25.195Z,43.40
2022-12-11T04:26:28.235Z,45.80
2022-12-11T04:29:31.220Z,44.60
2022-12-11T04:32:34.246Z,42.30
2022-12-11T04:35:37.353Z,42.40
2022-12-11T04:38:40.613Z,42.10
2022-12-11T04:41:43.671Z,42.00
2022-12-11T04:44:46.751Z,41.50
2022-12-11T04:47:49.933Z,41.30
2022-12-11T04:50:52.947Z,39.70
2022-12-11T04:53:56.153Z,37.60
2022-12-11T04:56:59.173Z,30.90
2022-12-11T05:00:04.702Z,32.30
2022-12-11T05:03:08.367Z,31.30
2022-12-11T05:06:12.022Z,34.20
2022-12-11T05:09:15.143Z,34.20
2022-12-11T05:12:18.155Z,31.80
2022-12-11T05:15:21.346Z,35.10
2022-12-11T05:18:25.220Z,30.90
2022-12-11T05:21:34.666Z,33.80
2022-12-11T05:24:38.140Z,33.80
2022-12-11T05:27:41.110Z,33.50
2022-12-11T05:30:44.223Z,37.30
2022-12-11T05:33:48.960Z,35.00
2022-12-11T05:36:52.016Z,39.40
2022-12-11T05:39:55.026Z,40.60
2022-12-11T05:42:58.296Z,44.30
2022-12-11T05:46:11.838Z,44.20
2022-12-11T05:49:17.525Z,44.70
2022-12-11T05:52:23.012Z,44.00
2022-12-11T05:55:26.020Z,43.20
2022-12-11T05:58:29.575Z,52.60
2022-12-11T06:01:43.103Z,46.70
2022-12-11T06:04:46.422Z,42.00
2022-12-11T06:07:49.506Z,37.20
2022-12-11T06:10:52.570Z,34.60
2022-12-11T06:13:56.249Z,31.60
2022-12-11T06:16:59.289Z,30.10
2022-12-11T06:20:02.343Z,28.60
2022-12-11T06:23:05.419Z,28.00
2022-12-11T06:26:09.576Z,29.90
2022-12-11T06:29:13.054Z,30.30
2022-12-11T06:32:16.290Z,34.10
2022-12-11T06:35:19.321Z,43.50
2022-12-11T06:38:22.945Z,41.70
2022-12-11T06:41:26.049Z,34.40
2022-12-11T06:44:29.047Z,27.20
2022-12-11T06:47:33.168Z,30.30
2022-12-11T06:50:38.604Z,27.10
2022-12-11T06:53:42.190Z,28.30
2022-12-11T06:56:45.226Z,25.90
2022-12-11T06:59:48.338Z,28.70
2022-12-11T07:02:51.553Z,23.50
2022-12-11T07:05:54.630Z,24.60
2022-12-11T07:08:57.654Z,27.80
2022-12-11T07:12:00.816Z,29.20
2022-12-11T07:15:05.516Z,28.50
2022-12-11T07:18:08.546Z,22.40
2022-12-11T07:21:13.182Z,23.30
2022-12-11T07:24:16.259Z,26.80
2022-12-11T07:27:19.456Z,30.80
2022-12-11T07:30:22.411Z,26.40
2022-12-11T07:33:25.424Z,22.40
2022-12-11T07:36:29.620Z,27.60
2022-12-11T07:39:33.038Z,22.80
2022-12-11T07:42:37.628Z,24.80
2022-12-11T07:45:43.408Z,27.90
2022-12-11T07:48:48.067Z,34.00
2022-12-11T07:51:51.372Z,27.40
2022-12-11T07:54:55.017Z,28.40
2022-12-11T07:58:05.389Z,29.80
2022-12-11T08:01:18.096Z,34.10
2022-12-11T08:04:22.616Z,27.60
2022-12-11T08:07:29.421Z,33.40
2022-12-11T08:10:32.500Z,37.40
2022-12-11T08:13:36.152Z,33.30
2022-12-11T08:16:43.086Z,27.50
2022-12-11T08:19:46.193Z,26.20
2022-12-11T08:22:49.191Z,26.20
2022-12-11T08:25:52.215Z,35.20
2022-12-11T08:28:56.057Z,35.10
2022-12-11T08:31:59.119Z,25.90
2022-12-11T08:35:02.286Z,26.60
2022-12-11T08:38:05.596Z,28.30
2022-12-11T08:41:12.260Z,25.80
2022-12-11T08:44:16.851Z,39.30
2022-12-11T08:47:20.145Z,33.50
2022-12-11T08:50:23.183Z,31.30
2022-12-11T08:53:26.432Z,27.40
2022-12-11T08:56:30.448Z,27.10
2022-12-11T08:59:33.623Z,27.50
2022-12-11T09:02:36.708Z,27.90
2022-12-11T09:05:40.207Z,30.80
2022-12-11T09:08:51.661Z,25.20
2022-12-11T09:12:04.832Z,24.50
2022-12-11T09:18:19.106Z,22.90
2022-12-11T09:21:26.308Z,26.20
2022-12-11T09:24:29.418Z,27.10
2022-12-11T09:27:33.869Z,27.00
2022-12-11T09:30:36.969Z,24.90
2022-12-11T09:33:40.337Z,31.20
2022-12-11T09:36:44.373Z,26.60
2022-12-11T09:39:47.453Z,25.40
2022-12-11T09:43:00.173Z,21.60
2022-12-11T09:46:07.105Z,29.90
2022-12-11T09:49:22.710Z,26.50
2022-12-11T09:56:49.707Z,26.10
2022-12-11T10:00:11.503Z,24.30
2022-12-11T10:03:35.998Z,21.30
2022-12-11T10:06:48.820Z,24.80
2022-12-11T10:09:56.752Z,23.10
2022-12-11T10:13:21.733Z,25.90
2022-12-11T10:16:38.508Z,27.50
2022-12-11T10:19:42.377Z,26.40
2022-12-11T10:22:45.965Z,26.40
2022-12-11T10:26:06.025Z,25.60
2022-12-11T10:29:15.340Z,26.90
2022-12-11T10:32:36.168Z,28.80
2022-12-11T10:35:40.709Z,27.20
2022-12-11T10:38:46.962Z,29.10
2022-12-11T10:41:52.755Z,25.50
2022-12-11T10:44:56.843Z,30.70
2022-12-11T10:48:13.372Z,29.60
2022-12-11T10:51:17.693Z,31.70
2022-12-11T10:55:00.332Z,35.10
2022-12-11T10:58:06.814Z,41.50
2022-12-11T11:01:29.390Z,42.00
2022-12-11T11:04:37.416Z,37.90
2022-12-11T11:07:41.123Z,39.10
2022-12-11T11:10:54.555Z,32.40
2022-12-11T11:14:21.252Z,35.60
2022-12-11T11:17:24.445Z,39.40
2022-12-11T11:21:00.788Z,42.10
2022-12-11T11:24:04.022Z,45.10
2022-12-11T11:27:36.173Z,33.90
2022-12-11T11:30:42.203Z,33.90
2022-12-11T11:34:00.582Z,33.00
2022-12-11T11:37:13.296Z,32.70
2022-12-11T11:40:29.785Z,32.80
2022-12-11T11:43:40.394Z,31.70
2022-12-11T11:46:54.166Z,27.10
2022-12-11T11:50:03.908Z,32.80
2022-12-11T11:53:20.955Z,31.40
2022-12-11T11:56:31.803Z,35.70
2022-12-11T11:59:49.602Z,36.80
2022-12-11T12:03:25.755Z,34.10
2022-12-11T12:06:43.751Z,33.00
2022-12-11T12:10:10.368Z,30.10
2022-12-11T12:14:22.530Z,28.00
2022-12-11T12:17:42.506Z,27.60
2022-12-11T12:21:51.628Z,27.90
2022-12-11T12:25:00.949Z,26.30
2022-12-11T12:28:22.802Z,26.70
2022-12-11T12:31:46.831Z,20.30
2022-12-11T12:35:08.561Z,33.80
2022-12-11T12:38:31.292Z,25.60
2022-12-11T12:42:07.237Z,28.50
2022-12-11T12:45:38.042Z,27.60
2022-12-11T12:48:41.349Z,28.90
2022-12-11T12:51:46.485Z,26.70
2022-12-11T12:55:13.379Z,29.10
2022-12-11T12:58:25.318Z,26.10
2022-12-11T13:01:30.626Z,22.60
2022-12-11T13:04:56.095Z,26.70
2022-12-11T13:08:02.933Z,22.20
2022-12-11T13:11:10.416Z,30.90
2022-12-11T13:14:16.465Z,32.40
2022-12-11T13:17:22.246Z,27.10
2022-12-11T13:20:28.783Z,32.60
2022-12-11T13:23:35.176Z,28.60
2022-12-11T13:26:38.394Z,29.60
2022-12-11T13:29:42.637Z,30.60
2022-12-11T13:33:07.104Z,31.30
2022-12-11T13:36:16.771Z,28.20
2022-12-11T13:39:26.195Z,27.90
2022-12-11T13:42:37.445Z,29.00
2022-12-11T13:45:49.245Z,29.00
2022-12-11T13:48:57.335Z,28.10
2022-12-11T13:52:01.522Z,27.30
2022-12-11T13:55:27.199Z,26.60
2022-12-11T13:58:34.640Z,28.90
2022-12-11T14:01:37.770Z,31.40
2022-12-11T14:04:41.497Z,31.80
2022-12-11T14:07:49.865Z,33.00
2022-12-11T14:10:54.070Z,35.30
2022-12-11T14:14:00.996Z,35.30
2022-12-11T14:17:04.400Z,32.60
2022-12-11T14:20:19.729Z,39.00
2022-12-11T14:23:26.375Z,40.00
2022-12-11T14:26:33.143Z,35.80
2022-12-11T14:29:36.313Z,32.80
2022-12-11T14:32:44.880Z,29.10
2022-12-11T14:35:49.898Z,29.70
2022-12-11T14:38:57.993Z,32.40
2022-12-11T14:42:08.500Z,31.20
2022-12-11T14:45:35.024Z,29.00
2022-12-11T14:48:46.887Z,31.90
2022-12-11T14:51:51.741Z,33.10
2022-12-11T14:55:00.784Z,33.00
2022-12-11T14:58:12.128Z,28.60
2022-12-11T15:01:33.058Z,27.10
2022-12-11T15:04:42.171Z,26.20
2022-12-11T15:08:10.582Z,23.40
2022-12-11T15:11:16.904Z,25.80
2022-12-11T15:14:29.658Z,26.50
2022-12-11T15:17:37.264Z,21.90
2022-12-11T15:20:40.848Z,23.80
2022-12-11T15:23:52.517Z,23.50
2022-12-11T15:26:59.376Z,26.30
2022-12-11T15:30:15.553Z,24.30
2022-12-11T15:33:21.964Z,23.80
2022-12-11T15:36:25.040Z,24.10
2022-12-11T15:39:28.152Z,24.70
2022-12-11T15:42:34.472Z,25.60
2022-12-11T15:45:37.686Z,25.50
2022-12-11T15:48:40.926Z,28.90
2022-12-11T15:51:43.993Z,24.10
2022-12-11T15:54:51.618Z,25.90
2022-12-11T15:58:01.322Z,28.50
2022-12-11T16:01:04.752Z,28.50
2022-12-11T16:04:08.475Z,29.60
2022-12-11T16:07:21.256Z,27.30
2022-12-11T16:10:24.390Z,28.90
2022-12-11T16:13:27.546Z,29.60
2022-12-11T16:16:31.494Z,31.20
2022-12-11T16:19:38.890Z,32.60
2022-12-11T16:22:51.024Z,30.10
2022-12-11T16:25:54.065Z,29.50
2022-12-11T16:29:15.077Z,32.20
2022-12-11T16:32:18.758Z,30.90
2022-12-11T16:35:22.724Z,33.70
2022-12-11T16:38:28.854Z,30.70
2022-12-11T16:41:32.015Z,31.30
2022-12-11T16:44:39.558Z,32.00
2022-12-11T16:47:46.529Z,29.80
2022-12-11T16:50:53.551Z,30.60
2022-12-11T16:53:59.587Z,31.60
2022-12-11T16:57:04.376Z,30.90
2022-12-11T17:00:44.851Z,36.60
2022-12-11T17:04:11.427Z,30.70
2022-12-11T17:10:31.372Z,28.50
2022-12-11T17:15:46.445Z,35.60
2022-12-11T17:18:51.717Z,28.00
2022-12-11T17:22:03.395Z,27.30
2022-12-11T17:25:31.888Z,30.50
2022-12-11T17:28:41.861Z,23.50
2022-12-11T17:31:53.138Z,25.30
2022-12-11T17:34:56.651Z,22.60
2022-12-11T17:38:06.440Z,22.30
2022-12-11T17:41:16.946Z,21.50
2022-12-11T17:47:54.901Z,22.00
2022-12-11T17:50:58.547Z,24.50
2022-12-11T17:54:01.837Z,24.00
2022-12-11T17:57:06.910Z,26.30
2022-12-11T18:00:10.562Z,25.00
2022-12-11T18:03:15.821Z,24.90
2022-12-11T18:06:18.963Z,25.80
2022-12-11T18:09:33.906Z,22.70
2022-12-11T18:12:37.890Z,23.90
2022-12-11T18:16:06.718Z,24.40
2022-12-11T18:19:09.915Z,22.20
2022-12-11T18:22:13.010Z,27.20
2022-12-11T18:25:17.335Z,24.70
2022-12-11T18:28:21.331Z,24.60
2022-12-11T18:31:25.054Z,29.80
2022-12-11T18:34:28.266Z,29.80
2022-12-11T18:37:31.818Z,26.00
2022-12-11T18:40:38.428Z,28.00
2022-12-11T18:43:42.489Z,29.10
2022-12-11T18:46:45.594Z,24.20
2022-12-11T18:49:48.720Z,23.50
2022-12-11T18:52:55.838Z,22.80
2022-12-11T18:56:00.687Z,23.70
2022-12-11T18:59:10.547Z,22.80
2022-12-11T19:02:13.764Z,23.00
2022-12-11T19:05:16.919Z,24.80
2022-12-11T19:08:20.068Z,25.00
2022-12-11T19:11:26.505Z,26.00
2022-12-11T19:14:30.119Z,26.00
2022-12-11T19:17:35.952Z,30.70
2022-12-11T19:20:49.187Z,31.20
2022-12-11T19:23:56.711Z,38.20
2022-12-11T19:26:59.844Z,27.70
2022-12-11T19:30:04.792Z,28.90
2022-12-11T19:33:08.426Z,27.10
2022-12-11T19:36:13.564Z,27.50
2022-12-11T19:39:20.295Z,27.90
2022-12-11T19:42:23.458Z,23.80
2022-12-11T19:45:36.315Z,21.60
2022-12-11T19:48:42.443Z,22.00
2022-12-11T19:51:45.542Z,24.30
2022-12-11T19:54:48.950Z,25.20
2022-12-11T19:57:52.364Z,19.80
2022-12-11T20:00:55.707Z,21.30
2022-12-11T20:04:00.962Z,22.20
2022-12-11T20:07:04.469Z,20.20
2022-12-11T20:10:07.957Z,22.30
2022-12-11T20:13:10.973Z,21.70
2022-12-11T20:16:15.557Z,26.30
2022-12-11T20:19:22.086Z,26.70
2022-12-11T20:22:25.091Z,23.90
2022-12-11T20:25:28.784Z,27.00
2022-12-11T20:28:31.832Z,24.20
2022-12-11T20:31:36.368Z,29.60
2022-12-11T20:34:39.665Z,26.80
2022-12-11T20:37:42.752Z,28.60
2022-12-11T20:40:46.324Z,27.50
2022-12-11T20:43:50.322Z,24.30
2022-12-11T20:46:53.975Z,25.40
2022-12-11T20:49:57.078Z,27.60
2022-12-11T20:53:00.277Z,28.40
2022-12-11T20:56:16.852Z,26.80
2022-12-11T20:59:19.882Z,28.00
2022-12-11T21:02:23.236Z,26.90
2022-12-11T21:05:26.403Z,38.50
2022-12-11T21:08:29.481Z,30.10
2022-12-11T21:11:32.786Z,26.40
2022-12-11T21:14:36.120Z,30.00
2022-12-11T21:17:40.814Z,29.20
2022-12-11T21:20:43.835Z,29.10
2022-12-11T21:23:46.887Z,30.20
2022-12-11T21:26:50.249Z,28.10
2022-12-11T21:29:53.258Z,29.60
2022-12-11T21:32:56.340Z,30.70
2022-12-11T21:36:00.716Z,29.60
2022-12-11T21:39:04.948Z,31.90
2022-12-11T21:42:08.147Z,35.30
2022-12-11T21:45:59.350Z,36.00
2022-12-11T21:48:34.208Z,34.10
2022-12-11T21:51:43.970Z,33.30
2022-12-11T21:54:49.769Z,35.70
2022-12-11T21:57:54.391Z,35.30
2022-12-11T22:00:57.519Z,35.00
2022-12-11T22:04:01.159Z,33.30
2022-12-11T22:07:04.507Z,33.00
2022-12-11T22:10:08.021Z,29.50
2022-12-11T22:13:11.079Z,27.30
2022-12-11T22:16:14.331Z,25.50
2022-12-11T22:19:17.431Z,26.30
2022-12-11T22:22:20.514Z,26.20
2022-12-11T22:25:23.633Z,23.50
2022-12-11T22:28:26.618Z,21.00
2022-12-11T22:31:29.751Z,29.00
2022-12-11T22:34:32.888Z,27.60
2022-12-11T22:37:36.226Z,23.90
2022-12-11T22:40:41.601Z,23.00
2022-12-11T22:43:44.619Z,25.70
2022-12-11T22:46:50.244Z,26.70
2022-12-11T22:49:53.756Z,24.20
2022-12-11T22:52:56.757Z,26.00
2022-12-11T22:55:59.747Z,25.10
2022-12-11T22:59:02.794Z,24.10
2022-12-11T23:02:06.011Z,23.00
2022-12-11T23:05:12.025Z,26.00
2022-12-11T23:08:15.330Z,24.70
2022-12-11T23:11:22.400Z,27.30
2022-12-11T23:14:25.402Z,27.40
2022-12-11T23:17:28.399Z,26.50
2022-12-11T23:20:31.440Z,26.50
2022-12-11T23:23:34.640Z,27.20
2022-12-11T23:26:38.477Z,28.30
2022-12-11T23:29:41.667Z,26.50
2022-12-11T23:32:44.679Z,26.70
2022-12-11T23:35:47.666Z,24.60
2022-12-11T23:38:54.479Z,26.00
2022-12-11T23:41:57.827Z,24.60
2022-12-11T23:45:00.843Z,25.70
2022-12-11T23:48:03.875Z,24.00
2022-12-11T23:51:07.790Z,27.80
2022-12-11T23:54:10.798Z,25.00
2022-12-11T23:57:13.831Z,23.10
